sensor_id;sensor_type;location;lat;lon;timestamp;temperature;humidity
66271;DHT22;53063;39.614;8.814;2023-08-06T00:00:28;21.40;82.80
66271;DHT22;53063;39.614;8.814;2023-08-06T00:02:54;21.30;82.70
66271;DHT22;53063;39.614;8.814;2023-08-06T00:05:20;21.30;82.90
66271;DHT22;53063;39.614;8.814;2023-08-06T00:07:49;21.30;82.90
66271;DHT22;53063;39.614;8.814;2023-08-06T00:10:16;21.30;82.80
66271;DHT22;53063;39.614;8.814;2023-08-06T00:12:43;21.20;82.90
66271;DHT22;53063;39.614;8.814;2023-08-06T00:15:10;21.20;83.00
66271;DHT22;53063;39.614;8.814;2023-08-06T00:17:36;21.10;83.00
66271;DHT22;53063;39.614;8.814;2023-08-06T00:20:03;21.10;83.50
66271;DHT22;53063;39.614;8.814;2023-08-06T00:22:36;21.10;83.70
66271;DHT22;53063;39.614;8.814;2023-08-06T00:25:03;21.00;84.10
66271;DHT22;53063;39.614;8.814;2023-08-06T00:27:29;21.10;84.10
66271;DHT22;53063;39.614;8.814;2023-08-06T00:29:55;21.10;84.20
66271;DHT22;53063;39.614;8.814;2023-08-06T00:32:22;21.10;84.40
66271;DHT22;53063;39.614;8.814;2023-08-06T00:34:48;21.10;84.60
66271;DHT22;53063;39.614;8.814;2023-08-06T00:37:18;21.00;84.80
66271;DHT22;53063;39.614;8.814;2023-08-06T00:39:44;21.10;84.90
66271;DHT22;53063;39.614;8.814;2023-08-06T00:42:11;21.10;84.80
66271;DHT22;53063;39.614;8.814;2023-08-06T00:44:38;21.00;84.90
66271;DHT22;53063;39.614;8.814;2023-08-06T00:47:06;21.00;85.10
66271;DHT22;53063;39.614;8.814;2023-08-06T00:49:34;20.90;85.60
66271;DHT22;53063;39.614;8.814;2023-08-06T00:52:00;20.90;85.60
66271;DHT22;53063;39.614;8.814;2023-08-06T00:54:27;20.90;85.70
66271;DHT22;53063;39.614;8.814;2023-08-06T00:56:53;20.90;85.70
66271;DHT22;53063;39.614;8.814;2023-08-06T00:59:19;20.90;85.60
66271;DHT22;53063;39.614;8.814;2023-08-06T01:01:45;20.90;85.50
66271;DHT22;53063;39.614;8.814;2023-08-06T01:04:12;20.80;85.70
66271;DHT22;53063;39.614;8.814;2023-08-06T01:06:48;20.80;85.70
66271;DHT22;53063;39.614;8.814;2023-08-06T01:12:06;20.80;85.40
66271;DHT22;53063;39.614;8.814;2023-08-06T01:17:24;20.90;85.60
66271;DHT22;53063;39.614;8.814;2023-08-06T01:19:52;20.90;85.20
66271;DHT22;53063;39.614;8.814;2023-08-06T01:22:18;20.90;85.20
66271;DHT22;53063;39.614;8.814;2023-08-06T01:24:48;20.90;85.20
66271;DHT22;53063;39.614;8.814;2023-08-06T01:27:28;21.00;85.20
66271;DHT22;53063;39.614;8.814;2023-08-06T01:32:30;21.00;85.20
66271;DHT22;53063;39.614;8.814;2023-08-06T01:34:59;21.00;85.70
66271;DHT22;53063;39.614;8.814;2023-08-06T01:37:26;21.00;85.80
66271;DHT22;53063;39.614;8.814;2023-08-06T01:39:53;21.00;86.10
66271;DHT22;53063;39.614;8.814;2023-08-06T01:42:19;20.90;86.40
66271;DHT22;53063;39.614;8.814;2023-08-06T01:44:46;21.00;86.70
66271;DHT22;53063;39.614;8.814;2023-08-06T01:47:12;21.10;87.10
66271;DHT22;53063;39.614;8.814;2023-08-06T01:49:38;21.10;87.50
66271;DHT22;53063;39.614;8.814;2023-08-06T01:52:04;21.20;87.80
66271;DHT22;53063;39.614;8.814;2023-08-06T01:54:32;21.20;87.80
66271;DHT22;53063;39.614;8.814;2023-08-06T01:56:58;21.20;87.90
66271;DHT22;53063;39.614;8.814;2023-08-06T01:59:24;21.30;87.90
66271;DHT22;53063;39.614;8.814;2023-08-06T02:01:50;21.30;87.80
66271;DHT22;53063;39.614;8.814;2023-08-06T02:04:16;21.20;88.10
66271;DHT22;53063;39.614;8.814;2023-08-06T02:06:42;21.10;88.40
66271;DHT22;53063;39.614;8.814;2023-08-06T02:09:08;21.10;88.50
66271;DHT22;53063;39.614;8.814;2023-08-06T02:11:35;21.20;88.50
66271;DHT22;53063;39.614;8.814;2023-08-06T02:14:01;21.10;88.10
66271;DHT22;53063;39.614;8.814;2023-08-06T02:16:27;21.00;87.90
66271;DHT22;53063;39.614;8.814;2023-08-06T02:18:53;21.00;87.30
66271;DHT22;53063;39.614;8.814;2023-08-06T02:21:19;21.10;86.90
66271;DHT22;53063;39.614;8.814;2023-08-06T02:23:45;21.00;86.40
66271;DHT22;53063;39.614;8.814;2023-08-06T02:26:10;21.00;85.70
66271;DHT22;53063;39.614;8.814;2023-08-06T02:28:36;21.00;85.50
66271;DHT22;53063;39.614;8.814;2023-08-06T02:31:02;21.10;85.00
66271;DHT22;53063;39.614;8.814;2023-08-06T02:33:28;21.00;84.60
66271;DHT22;53063;39.614;8.814;2023-08-06T02:36:02;21.00;84.50
66271;DHT22;53063;39.614;8.814;2023-08-06T02:38:32;21.00;84.40
66271;DHT22;53063;39.614;8.814;2023-08-06T02:40:58;20.90;84.10
66271;DHT22;53063;39.614;8.814;2023-08-06T02:43:24;20.90;84.10
66271;DHT22;53063;39.614;8.814;2023-08-06T02:45:50;20.80;84.10
66271;DHT22;53063;39.614;8.814;2023-08-06T02:48:16;20.70;84.30
66271;DHT22;53063;39.614;8.814;2023-08-06T02:50:43;20.80;84.20
66271;DHT22;53063;39.614;8.814;2023-08-06T02:53:10;20.70;84.20
66271;DHT22;53063;39.614;8.814;2023-08-06T02:55:37;20.70;84.00
66271;DHT22;53063;39.614;8.814;2023-08-06T02:58:09;20.70;84.20
66271;DHT22;53063;39.614;8.814;2023-08-06T03:00:39;20.70;84.00
66271;DHT22;53063;39.614;8.814;2023-08-06T03:03:07;20.70;84.10
66271;DHT22;53063;39.614;8.814;2023-08-06T03:05:40;20.70;84.10
66271;DHT22;53063;39.614;8.814;2023-08-06T03:08:06;20.60;84.30
66271;DHT22;53063;39.614;8.814;2023-08-06T03:10:35;20.50;84.60
66271;DHT22;53063;39.614;8.814;2023-08-06T03:13:03;20.40;85.00
66271;DHT22;53063;39.614;8.814;2023-08-06T03:15:29;20.50;85.20
66271;DHT22;53063;39.614;8.814;2023-08-06T03:17:56;20.50;85.30
66271;DHT22;53063;39.614;8.814;2023-08-06T03:20:22;20.40;86.00
66271;DHT22;53063;39.614;8.814;2023-08-06T03:22:49;20.40;86.40
66271;DHT22;53063;39.614;8.814;2023-08-06T03:25:16;20.40;86.70
66271;DHT22;53063;39.614;8.814;2023-08-06T03:27:46;20.30;86.80
66271;DHT22;53063;39.614;8.814;2023-08-06T03:30:13;20.40;87.00
66271;DHT22;53063;39.614;8.814;2023-08-06T03:32:40;20.30;87.40
66271;DHT22;53063;39.614;8.814;2023-08-06T03:35:06;20.20;87.50
66271;DHT22;53063;39.614;8.814;2023-08-06T03:37:32;20.20;88.10
66271;DHT22;53063;39.614;8.814;2023-08-06T03:39:58;20.10;88.60
66271;DHT22;53063;39.614;8.814;2023-08-06T03:42:24;20.10;88.90
66271;DHT22;53063;39.614;8.814;2023-08-06T03:44:50;20.20;89.60
66271;DHT22;53063;39.614;8.814;2023-08-06T03:47:16;20.10;89.80
66271;DHT22;53063;39.614;8.814;2023-08-06T03:49:42;20.20;90.10
66271;DHT22;53063;39.614;8.814;2023-08-06T03:52:09;20.20;90.00
66271;DHT22;53063;39.614;8.814;2023-08-06T03:54:35;20.10;90.30
66271;DHT22;53063;39.614;8.814;2023-08-06T03:57:01;20.20;90.30
66271;DHT22;53063;39.614;8.814;2023-08-06T03:59:27;20.10;90.40
66271;DHT22;53063;39.614;8.814;2023-08-06T04:01:55;20.00;90.70
66271;DHT22;53063;39.614;8.814;2023-08-06T04:04:21;20.00;91.30
66271;DHT22;53063;39.614;8.814;2023-08-06T04:06:47;19.90;92.00
66271;DHT22;53063;39.614;8.814;2023-08-06T04:09:13;20.00;92.30
66271;DHT22;53063;39.614;8.814;2023-08-06T04:11:39;20.10;92.20
66271;DHT22;53063;39.614;8.814;2023-08-06T04:14:05;20.10;92.10
66271;DHT22;53063;39.614;8.814;2023-08-06T04:16:31;20.10;92.50
66271;DHT22;53063;39.614;8.814;2023-08-06T04:18:56;20.10;92.50
66271;DHT22;53063;39.614;8.814;2023-08-06T04:21:23;20.10;92.80
66271;DHT22;53063;39.614;8.814;2023-08-06T04:23:49;20.00;92.80
66271;DHT22;53063;39.614;8.814;2023-08-06T04:26:19;20.00;92.60
66271;DHT22;53063;39.614;8.814;2023-08-06T04:28:45;20.10;92.80
66271;DHT22;53063;39.614;8.814;2023-08-06T04:31:11;20.10;92.70
66271;DHT22;53063;39.614;8.814;2023-08-06T04:33:39;20.10;92.60
66271;DHT22;53063;39.614;8.814;2023-08-06T04:36:08;20.10;92.50
66271;DHT22;53063;39.614;8.814;2023-08-06T04:38:35;20.00;92.70
66271;DHT22;53063;39.614;8.814;2023-08-06T04:41:02;19.90;93.40
66271;DHT22;53063;39.614;8.814;2023-08-06T04:43:29;19.90;94.00
66271;DHT22;53063;39.614;8.814;2023-08-06T04:45:55;20.00;94.20
66271;DHT22;53063;39.614;8.814;2023-08-06T04:48:22;20.00;94.20
66271;DHT22;53063;39.614;8.814;2023-08-06T04:50:49;20.10;94.10
66271;DHT22;53063;39.614;8.814;2023-08-06T04:53:15;20.00;94.00
66271;DHT22;53063;39.614;8.814;2023-08-06T04:55:42;20.10;94.10
66271;DHT22;53063;39.614;8.814;2023-08-06T04:58:09;20.10;94.00
66271;DHT22;53063;39.614;8.814;2023-08-06T05:00:35;20.10;94.20
66271;DHT22;53063;39.614;8.814;2023-08-06T05:03:02;20.10;94.00
66271;DHT22;53063;39.614;8.814;2023-08-06T05:05:28;20.20;93.80
66271;DHT22;53063;39.614;8.814;2023-08-06T05:07:55;20.30;93.40
66271;DHT22;53063;39.614;8.814;2023-08-06T05:10:27;20.30;93.30
66271;DHT22;53063;39.614;8.814;2023-08-06T05:12:53;20.30;93.20
66271;DHT22;53063;39.614;8.814;2023-08-06T05:15:19;20.10;93.80
66271;DHT22;53063;39.614;8.814;2023-08-06T05:17:45;20.10;93.90
66271;DHT22;53063;39.614;8.814;2023-08-06T05:20:11;20.10;94.40
66271;DHT22;53063;39.614;8.814;2023-08-06T05:22:37;20.10;94.30
66271;DHT22;53063;39.614;8.814;2023-08-06T05:25:03;20.10;93.80
66271;DHT22;53063;39.614;8.814;2023-08-06T05:27:30;20.20;93.20
66271;DHT22;53063;39.614;8.814;2023-08-06T05:29:56;20.20;92.40
66271;DHT22;53063;39.614;8.814;2023-08-06T05:32:22;20.20;92.20
66271;DHT22;53063;39.614;8.814;2023-08-06T05:34:48;20.40;91.50
66271;DHT22;53063;39.614;8.814;2023-08-06T05:37:14;20.50;91.10
66271;DHT22;53063;39.614;8.814;2023-08-06T05:39:40;20.60;90.20
66271;DHT22;53063;39.614;8.814;2023-08-06T05:42:06;20.70;89.30
66271;DHT22;53063;39.614;8.814;2023-08-06T05:44:32;20.80;88.20
66271;DHT22;53063;39.614;8.814;2023-08-06T05:46:58;21.00;87.10
66271;DHT22;53063;39.614;8.814;2023-08-06T05:49:24;21.20;86.00
66271;DHT22;53063;39.614;8.814;2023-08-06T05:51:50;21.30;84.60
66271;DHT22;53063;39.614;8.814;2023-08-06T05:54:19;21.50;83.50
66271;DHT22;53063;39.614;8.814;2023-08-06T05:56:45;22.30;80.20
66271;DHT22;53063;39.614;8.814;2023-08-06T05:59:11;22.80;77.30
66271;DHT22;53063;39.614;8.814;2023-08-06T06:01:37;24.00;74.10
66271;DHT22;53063;39.614;8.814;2023-08-06T06:04:03;24.00;72.20
66271;DHT22;53063;39.614;8.814;2023-08-06T06:06:29;24.30;69.50
66271;DHT22;53063;39.614;8.814;2023-08-06T06:08:55;24.00;71.50
66271;DHT22;53063;39.614;8.814;2023-08-06T06:11:21;24.40;68.50
66271;DHT22;53063;39.614;8.814;2023-08-06T06:13:51;24.60;68.30
66271;DHT22;53063;39.614;8.814;2023-08-06T06:16:18;24.60;67.50
66271;DHT22;53063;39.614;8.814;2023-08-06T06:18:44;24.10;67.00
66271;DHT22;53063;39.614;8.814;2023-08-06T06:21:10;23.10;70.40
66271;DHT22;53063;39.614;8.814;2023-08-06T06:23:36;23.80;68.20
66271;DHT22;53063;39.614;8.814;2023-08-06T06:26:02;23.20;70.50
66271;DHT22;53063;39.614;8.814;2023-08-06T06:28:28;23.10;71.40
66271;DHT22;53063;39.614;8.814;2023-08-06T06:31:00;22.70;71.70
66271;DHT22;53063;39.614;8.814;2023-08-06T06:33:26;22.70;71.40
66271;DHT22;53063;39.614;8.814;2023-08-06T06:35:52;22.70;71.10
66271;DHT22;53063;39.614;8.814;2023-08-06T06:38:18;22.80;70.70
66271;DHT22;53063;39.614;8.814;2023-08-06T06:40:52;22.90;69.80
66271;DHT22;53063;39.614;8.814;2023-08-06T06:43:18;22.90;70.00
66271;DHT22;53063;39.614;8.814;2023-08-06T06:45:44;23.10;69.40
66271;DHT22;53063;39.614;8.814;2023-08-06T06:48:10;23.00;68.00
66271;DHT22;53063;39.614;8.814;2023-08-06T06:50:36;22.90;68.60
66271;DHT22;53063;39.614;8.814;2023-08-06T06:53:02;22.80;68.30
66271;DHT22;53063;39.614;8.814;2023-08-06T06:55:27;23.00;68.50
66271;DHT22;53063;39.614;8.814;2023-08-06T06:57:53;23.20;68.40
66271;DHT22;53063;39.614;8.814;2023-08-06T07:00:19;23.20;67.60
66271;DHT22;53063;39.614;8.814;2023-08-06T07:02:45;23.10;67.10
66271;DHT22;53063;39.614;8.814;2023-08-06T07:05:11;23.10;67.50
66271;DHT22;53063;39.614;8.814;2023-08-06T07:07:37;23.30;66.90
66271;DHT22;53063;39.614;8.814;2023-08-06T07:10:03;23.30;66.40
66271;DHT22;53063;39.614;8.814;2023-08-06T07:12:29;23.30;66.40
66271;DHT22;53063;39.614;8.814;2023-08-06T07:14:55;23.50;66.60
66271;DHT22;53063;39.614;8.814;2023-08-06T07:17:21;23.60;65.30
66271;DHT22;53063;39.614;8.814;2023-08-06T07:19:47;23.90;64.10
66271;DHT22;53063;39.614;8.814;2023-08-06T07:22:13;23.70;64.90
66271;DHT22;53063;39.614;8.814;2023-08-06T07:24:38;23.70;65.00
66271;DHT22;53063;39.614;8.814;2023-08-06T07:27:05;24.00;64.70
66271;DHT22;53063;39.614;8.814;2023-08-06T07:29:31;24.10;63.90
66271;DHT22;53063;39.614;8.814;2023-08-06T07:31:56;24.00;64.50
66271;DHT22;53063;39.614;8.814;2023-08-06T07:34:22;24.30;64.30
66271;DHT22;53063;39.614;8.814;2023-08-06T07:36:48;24.20;63.70
66271;DHT22;53063;39.614;8.814;2023-08-06T07:39:14;24.20;64.30
66271;DHT22;53063;39.614;8.814;2023-08-06T07:41:42;24.30;64.00
66271;DHT22;53063;39.614;8.814;2023-08-06T07:44:08;24.30;64.00
66271;DHT22;53063;39.614;8.814;2023-08-06T07:46:34;24.30;63.60
66271;DHT22;53063;39.614;8.814;2023-08-06T07:49:00;24.40;63.40
66271;DHT22;53063;39.614;8.814;2023-08-06T07:51:25;24.60;63.30
66271;DHT22;53063;39.614;8.814;2023-08-06T07:53:51;24.40;64.00
66271;DHT22;53063;39.614;8.814;2023-08-06T07:56:17;24.50;64.00
66271;DHT22;53063;39.614;8.814;2023-08-06T07:58:43;24.60;63.30
66271;DHT22;53063;39.614;8.814;2023-08-06T08:01:09;24.60;62.50
66271;DHT22;53063;39.614;8.814;2023-08-06T08:03:35;24.60;62.80
66271;DHT22;53063;39.614;8.814;2023-08-06T08:06:01;24.70;63.00
66271;DHT22;53063;39.614;8.814;2023-08-06T08:08:27;24.70;63.70
66271;DHT22;53063;39.614;8.814;2023-08-06T08:10:53;24.70;64.00
66271;DHT22;53063;39.614;8.814;2023-08-06T08:13:21;24.90;62.70
66271;DHT22;53063;39.614;8.814;2023-08-06T08:15:47;24.80;63.00
66271;DHT22;53063;39.614;8.814;2023-08-06T08:18:12;24.80;63.10
66271;DHT22;53063;39.614;8.814;2023-08-06T08:20:38;24.90;62.10
66271;DHT22;53063;39.614;8.814;2023-08-06T08:23:04;25.10;61.50
66271;DHT22;53063;39.614;8.814;2023-08-06T08:25:30;25.10;61.30
66271;DHT22;53063;39.614;8.814;2023-08-06T08:27:57;25.60;61.00
66271;DHT22;53063;39.614;8.814;2023-08-06T08:30:23;25.90;59.50
66271;DHT22;53063;39.614;8.814;2023-08-06T08:32:50;26.00;58.90
66271;DHT22;53063;39.614;8.814;2023-08-06T08:35:16;25.90;58.70
66271;DHT22;53063;39.614;8.814;2023-08-06T08:37:43;25.70;59.80
66271;DHT22;53063;39.614;8.814;2023-08-06T08:40:09;25.80;58.80
66271;DHT22;53063;39.614;8.814;2023-08-06T08:42:36;25.90;58.50
66271;DHT22;53063;39.614;8.814;2023-08-06T08:45:04;25.90;59.60
66271;DHT22;53063;39.614;8.814;2023-08-06T08:47:31;26.10;57.60
66271;DHT22;53063;39.614;8.814;2023-08-06T08:49:58;26.00;57.70
66271;DHT22;53063;39.614;8.814;2023-08-06T08:52:25;25.90;57.50
66271;DHT22;53063;39.614;8.814;2023-08-06T08:54:53;26.10;56.50
66271;DHT22;53063;39.614;8.814;2023-08-06T08:57:20;26.20;56.10
66271;DHT22;53063;39.614;8.814;2023-08-06T08:59:46;26.20;54.90
66271;DHT22;53063;39.614;8.814;2023-08-06T09:02:13;26.40;55.70
66271;DHT22;53063;39.614;8.814;2023-08-06T09:04:40;26.60;55.60
66271;DHT22;53063;39.614;8.814;2023-08-06T09:07:08;26.70;54.20
66271;DHT22;53063;39.614;8.814;2023-08-06T09:09:37;26.70;55.50
66271;DHT22;53063;39.614;8.814;2023-08-06T09:12:12;26.80;54.30
66271;DHT22;53063;39.614;8.814;2023-08-06T09:14:40;26.70;54.90
66271;DHT22;53063;39.614;8.814;2023-08-06T09:17:06;26.90;54.40
66271;DHT22;53063;39.614;8.814;2023-08-06T09:19:32;26.90;55.00
66271;DHT22;53063;39.614;8.814;2023-08-06T09:21:59;27.00;53.10
66271;DHT22;53063;39.614;8.814;2023-08-06T09:24:25;26.70;54.50
66271;DHT22;53063;39.614;8.814;2023-08-06T09:26:54;26.90;55.00
66271;DHT22;53063;39.614;8.814;2023-08-06T09:29:20;26.90;54.30
66271;DHT22;53063;39.614;8.814;2023-08-06T09:31:49;27.00;54.50
66271;DHT22;53063;39.614;8.814;2023-08-06T09:34:18;26.90;54.50
66271;DHT22;53063;39.614;8.814;2023-08-06T09:36:54;27.30;53.90
66271;DHT22;53063;39.614;8.814;2023-08-06T09:39:27;27.20;53.70
66271;DHT22;53063;39.614;8.814;2023-08-06T09:41:57;27.10;53.60
66271;DHT22;53063;39.614;8.814;2023-08-06T09:44:25;27.10;52.70
66271;DHT22;53063;39.614;8.814;2023-08-06T09:46:55;27.10;52.30
66271;DHT22;53063;39.614;8.814;2023-08-06T09:49:39;27.30;52.30
66271;DHT22;53063;39.614;8.814;2023-08-06T09:52:13;27.30;52.40
66271;DHT22;53063;39.614;8.814;2023-08-06T09:54:43;27.40;53.00
66271;DHT22;53063;39.614;8.814;2023-08-06T09:57:09;27.70;51.70
66271;DHT22;53063;39.614;8.814;2023-08-06T09:59:39;27.90;51.00
66271;DHT22;53063;39.614;8.814;2023-08-06T10:02:11;27.50;52.80
66271;DHT22;53063;39.614;8.814;2023-08-06T10:04:37;27.10;51.50
66271;DHT22;53063;39.614;8.814;2023-08-06T10:07:04;27.40;52.90
66271;DHT22;53063;39.614;8.814;2023-08-06T10:09:30;27.40;52.30
66271;DHT22;53063;39.614;8.814;2023-08-06T10:11:58;27.70;52.40
66271;DHT22;53063;39.614;8.814;2023-08-06T10:16:53;27.90;50.60
66271;DHT22;53063;39.614;8.814;2023-08-06T10:19:20;28.20;50.30
66271;DHT22;53063;39.614;8.814;2023-08-06T10:22:12;27.90;51.20
66271;DHT22;53063;39.614;8.814;2023-08-06T10:24:55;28.00;48.00
66271;DHT22;53063;39.614;8.814;2023-08-06T10:27:40;27.70;49.20
66271;DHT22;53063;39.614;8.814;2023-08-06T10:30:30;27.70;50.80
66271;DHT22;53063;39.614;8.814;2023-08-06T10:33:02;27.70;51.90
66271;DHT22;53063;39.614;8.814;2023-08-06T10:35:44;27.80;51.30
66271;DHT22;53063;39.614;8.814;2023-08-06T10:38:21;28.00;48.60
66271;DHT22;53063;39.614;8.814;2023-08-06T10:41:01;28.00;48.70
66271;DHT22;53063;39.614;8.814;2023-08-06T10:43:37;28.40;46.00
66271;DHT22;53063;39.614;8.814;2023-08-06T10:46:10;28.50;48.60
66271;DHT22;53063;39.614;8.814;2023-08-06T10:48:40;28.60;46.90
66271;DHT22;53063;39.614;8.814;2023-08-06T10:51:11;28.30;48.00
66271;DHT22;53063;39.614;8.814;2023-08-06T10:53:41;28.30;48.10
66271;DHT22;53063;39.614;8.814;2023-08-06T10:58:41;28.50;46.30
66271;DHT22;53063;39.614;8.814;2023-08-06T11:01:07;28.20;47.00
66271;DHT22;53063;39.614;8.814;2023-08-06T11:03:33;28.10;49.00
66271;DHT22;53063;39.614;8.814;2023-08-06T11:06:00;28.20;48.10
66271;DHT22;53063;39.614;8.814;2023-08-06T11:08:27;28.40;47.30
66271;DHT22;53063;39.614;8.814;2023-08-06T11:10:53;28.40;47.20
66271;DHT22;53063;39.614;8.814;2023-08-06T11:13:20;28.40;47.80
66271;DHT22;53063;39.614;8.814;2023-08-06T11:15:46;28.50;48.30
66271;DHT22;53063;39.614;8.814;2023-08-06T11:18:13;28.50;47.30
66271;DHT22;53063;39.614;8.814;2023-08-06T11:20:39;28.30;46.70
66271;DHT22;53063;39.614;8.814;2023-08-06T11:23:05;28.30;48.60
66271;DHT22;53063;39.614;8.814;2023-08-06T11:25:36;28.30;48.20
66271;DHT22;53063;39.614;8.814;2023-08-06T11:28:03;28.70;47.50
66271;DHT22;53063;39.614;8.814;2023-08-06T11:30:29;28.80;45.60
66271;DHT22;53063;39.614;8.814;2023-08-06T11:32:56;28.70;47.20
66271;DHT22;53063;39.614;8.814;2023-08-06T11:35:22;28.80;46.90
66271;DHT22;53063;39.614;8.814;2023-08-06T11:37:48;28.50;47.70
66271;DHT22;53063;39.614;8.814;2023-08-06T11:40:15;28.40;48.00
66271;DHT22;53063;39.614;8.814;2023-08-06T11:42:41;28.70;47.50
66271;DHT22;53063;39.614;8.814;2023-08-06T11:45:08;28.90;47.60
66271;DHT22;53063;39.614;8.814;2023-08-06T11:47:38;29.10;46.80
66271;DHT22;53063;39.614;8.814;2023-08-06T11:50:06;28.60;47.50
66271;DHT22;53063;39.614;8.814;2023-08-06T11:52:32;28.70;46.50
66271;DHT22;53063;39.614;8.814;2023-08-06T11:55:06;28.70;48.00
66271;DHT22;53063;39.614;8.814;2023-08-06T11:57:37;28.50;48.30
66271;DHT22;53063;39.614;8.814;2023-08-06T12:00:07;28.60;46.40
66271;DHT22;53063;39.614;8.814;2023-08-06T12:02:43;28.90;47.10
66271;DHT22;53063;39.614;8.814;2023-08-06T12:05:14;29.10;47.40
66271;DHT22;53063;39.614;8.814;2023-08-06T12:07:50;29.10;45.30
66271;DHT22;53063;39.614;8.814;2023-08-06T12:10:17;29.10;46.20
66271;DHT22;53063;39.614;8.814;2023-08-06T12:12:45;29.10;46.00
66271;DHT22;53063;39.614;8.814;2023-08-06T12:15:11;28.90;48.00
66271;DHT22;53063;39.614;8.814;2023-08-06T12:17:37;29.20;46.60
66271;DHT22;53063;39.614;8.814;2023-08-06T12:20:04;28.70;47.30
66271;DHT22;53063;39.614;8.814;2023-08-06T12:22:32;29.00;46.80
66271;DHT22;53063;39.614;8.814;2023-08-06T12:25:02;29.40;45.70
66271;DHT22;53063;39.614;8.814;2023-08-06T12:27:39;29.00;46.30
66271;DHT22;53063;39.614;8.814;2023-08-06T12:30:06;29.40;45.90
66271;DHT22;53063;39.614;8.814;2023-08-06T12:32:33;29.40;43.60
66271;DHT22;53063;39.614;8.814;2023-08-06T12:34:59;28.90;44.60
66271;DHT22;53063;39.614;8.814;2023-08-06T12:37:27;29.20;46.60
66271;DHT22;53063;39.614;8.814;2023-08-06T12:39:53;29.00;44.30
66271;DHT22;53063;39.614;8.814;2023-08-06T12:42:19;28.90;45.20
66271;DHT22;53063;39.614;8.814;2023-08-06T12:44:45;29.40;45.90
66271;DHT22;53063;39.614;8.814;2023-08-06T12:47:11;29.50;45.40
66271;DHT22;53063;39.614;8.814;2023-08-06T12:49:37;29.50;42.60
66271;DHT22;53063;39.614;8.814;2023-08-06T12:52:03;29.30;45.30
66271;DHT22;53063;39.614;8.814;2023-08-06T12:54:32;29.30;44.40
66271;DHT22;53063;39.614;8.814;2023-08-06T12:57:03;28.90;44.60
66271;DHT22;53063;39.614;8.814;2023-08-06T12:59:29;29.30;44.60
66271;DHT22;53063;39.614;8.814;2023-08-06T13:01:54;28.80;46.70
66271;DHT22;53063;39.614;8.814;2023-08-06T13:04:20;28.80;44.80
66271;DHT22;53063;39.614;8.814;2023-08-06T13:06:46;28.40;46.20
66271;DHT22;53063;39.614;8.814;2023-08-06T13:09:13;28.60;45.30
66271;DHT22;53063;39.614;8.814;2023-08-06T13:11:39;28.50;47.60
66271;DHT22;53063;39.614;8.814;2023-08-06T13:14:09;28.40;45.20
66271;DHT22;53063;39.614;8.814;2023-08-06T13:16:38;28.80;45.20
66271;DHT22;53063;39.614;8.814;2023-08-06T13:19:05;28.50;43.70
66271;DHT22;53063;39.614;8.814;2023-08-06T13:22:03;28.20;46.30
66271;DHT22;53063;39.614;8.814;2023-08-06T13:24:31;28.30;45.80
66271;DHT22;53063;39.614;8.814;2023-08-06T13:26:57;28.00;43.70
66271;DHT22;53063;39.614;8.814;2023-08-06T13:29:23;27.80;44.80
66271;DHT22;53063;39.614;8.814;2023-08-06T13:31:48;28.00;43.30
66271;DHT22;53063;39.614;8.814;2023-08-06T13:34:14;27.80;45.30
66271;DHT22;53063;39.614;8.814;2023-08-06T13:36:42;28.00;44.80
66271;DHT22;53063;39.614;8.814;2023-08-06T13:39:08;27.80;45.80
66271;DHT22;53063;39.614;8.814;2023-08-06T13:41:34;27.80;45.20
66271;DHT22;53063;39.614;8.814;2023-08-06T13:44:00;27.80;46.20
66271;DHT22;53063;39.614;8.814;2023-08-06T13:46:25;28.00;45.50
66271;DHT22;53063;39.614;8.814;2023-08-06T13:48:51;27.90;47.20
66271;DHT22;53063;39.614;8.814;2023-08-06T13:51:17;27.70;46.70
66271;DHT22;53063;39.614;8.814;2023-08-06T13:53:44;27.30;47.00
66271;DHT22;53063;39.614;8.814;2023-08-06T13:56:10;27.40;46.70
66271;DHT22;53063;39.614;8.814;2023-08-06T13:58:37;27.30;47.40
66271;DHT22;53063;39.614;8.814;2023-08-06T14:01:03;27.20;45.80
66271;DHT22;53063;39.614;8.814;2023-08-06T14:03:29;27.10;46.40
66271;DHT22;53063;39.614;8.814;2023-08-06T14:05:55;26.90;46.90
66271;DHT22;53063;39.614;8.814;2023-08-06T14:08:22;27.00;48.30
66271;DHT22;53063;39.614;8.814;2023-08-06T14:10:49;27.00;47.00
66271;DHT22;53063;39.614;8.814;2023-08-06T14:13:15;27.10;47.20
66271;DHT22;53063;39.614;8.814;2023-08-06T14:15:41;27.20;47.70
66271;DHT22;53063;39.614;8.814;2023-08-06T14:18:07;27.30;47.60
66271;DHT22;53063;39.614;8.814;2023-08-06T14:20:36;27.20;47.40
66271;DHT22;53063;39.614;8.814;2023-08-06T14:23:02;26.90;47.70
66271;DHT22;53063;39.614;8.814;2023-08-06T14:25:28;26.60;46.90
66271;DHT22;53063;39.614;8.814;2023-08-06T14:27:54;26.60;49.30
66271;DHT22;53063;39.614;8.814;2023-08-06T14:30:20;26.70;47.50
66271;DHT22;53063;39.614;8.814;2023-08-06T14:32:46;27.10;47.70
66271;DHT22;53063;39.614;8.814;2023-08-06T14:35:12;26.80;45.90
66271;DHT22;53063;39.614;8.814;2023-08-06T14:37:39;26.70;46.00
66271;DHT22;53063;39.614;8.814;2023-08-06T14:40:07;26.60;46.50
66271;DHT22;53063;39.614;8.814;2023-08-06T14:42:33;26.60;45.90
66271;DHT22;53063;39.614;8.814;2023-08-06T14:44:59;26.70;45.80
66271;DHT22;53063;39.614;8.814;2023-08-06T14:47:25;26.80;44.50
66271;DHT22;53063;39.614;8.814;2023-08-06T14:49:51;26.50;47.00
66271;DHT22;53063;39.614;8.814;2023-08-06T14:52:17;26.70;45.50
66271;DHT22;53063;39.614;8.814;2023-08-06T14:54:43;26.40;45.40
66271;DHT22;53063;39.614;8.814;2023-08-06T14:57:09;26.20;46.00
66271;DHT22;53063;39.614;8.814;2023-08-06T14:59:35;26.30;46.30
66271;DHT22;53063;39.614;8.814;2023-08-06T15:02:01;26.30;46.20
66271;DHT22;53063;39.614;8.814;2023-08-06T15:04:27;26.00;46.40
66271;DHT22;53063;39.614;8.814;2023-08-06T15:06:54;26.00;46.10
66271;DHT22;53063;39.614;8.814;2023-08-06T15:09:20;25.90;46.40
66271;DHT22;53063;39.614;8.814;2023-08-06T15:11:47;25.90;47.00
66271;DHT22;53063;39.614;8.814;2023-08-06T15:14:13;25.80;47.70
66271;DHT22;53063;39.614;8.814;2023-08-06T15:16:40;25.90;47.50
66271;DHT22;53063;39.614;8.814;2023-08-06T15:19:06;26.10;46.70
66271;DHT22;53063;39.614;8.814;2023-08-06T15:21:32;25.80;46.60
66271;DHT22;53063;39.614;8.814;2023-08-06T15:23:59;25.50;48.50
66271;DHT22;53063;39.614;8.814;2023-08-06T15:26:27;25.60;49.10
66271;DHT22;53063;39.614;8.814;2023-08-06T15:28:53;25.70;47.50
66271;DHT22;53063;39.614;8.814;2023-08-06T15:31:20;25.40;48.10
66271;DHT22;53063;39.614;8.814;2023-08-06T15:33:47;25.40;48.80
66271;DHT22;53063;39.614;8.814;2023-08-06T15:36:13;25.30;48.70
66271;DHT22;53063;39.614;8.814;2023-08-06T15:38:39;25.40;49.50
66271;DHT22;53063;39.614;8.814;2023-08-06T15:41:05;25.40;47.80
66271;DHT22;53063;39.614;8.814;2023-08-06T15:43:31;25.30;49.70